Time;durP1;ratioP1;P1;durP2;ratioP2;P2;SDS_P1;SDS_P2;PMS_P1;PMS_P2;Temp;Humidity;BMP_temperature;BMP_pressure;BME280_temperature;BME280_humidity;BME280_pressure;Samples;Min_cycle;Max_cycle;Signal;HPM_P1;HPM_P2
2022/06/14 00:01:04;;;;;;;2.43;2.10;;;;;;;;;;4974606;28;20634;-53
2022/06/14 00:03:34;;;;;;;4.57;2.13;;;;;;;;;;4974531;28;20226;-52
2022/06/14 00:06:01;;;;;;;3.83;1.73;;;;;;;;;;4974868;28;20202;-54
2022/06/14 00:08:28;;;;;;;4.30;2.20;;;;;;;;;;4974573;28;20253;-54
2022/06/14 00:10:55;;;;;;;4.23;2.00;;;;;;;;;;4974477;28;20190;-54
2022/06/14 00:13:21;;;;;;;4.40;2.23;;;;;;;;;;4974632;28;20203;-54
2022/06/14 00:15:47;;;;;;;5.60;2.17;;;;;;;;;;4974562;28;20571;-54
2022/06/14 00:18:13;;;;;;;3.87;2.13;;;;;;;;;;4974544;28;20198;-54
2022/06/14 00:20:41;;;;;;;2.57;1.90;;;;;;;;;;4974401;28;20219;-54
2022/06/14 00:23:08;;;;;;;3.80;1.60;;;;;;;;;;4974431;28;20203;-54
2022/06/14 00:25:36;;;;;;;3.97;2.03;;;;;;;;;;4974317;28;20233;-54
2022/06/14 00:28:02;;;;;;;4.50;2.30;;;;;;;;;;4974013;28;20209;-54
2022/06/14 00:30:29;;;;;;;3.57;2.10;;;;;;;;;;4973689;28;20234;-54
2022/06/14 00:32:55;;;;;;;6.63;2.37;;;;;;;;;;4974056;28;20661;-54
2022/06/14 00:35:21;;;;;;;3.87;2.20;;;;;;;;;;4973911;28;20205;-54
2022/06/14 00:37:48;;;;;;;4.27;2.10;;;;;;;;;;4973785;28;20202;-54
2022/06/14 00:40:16;;;;;;;3.30;1.90;;;;;;;;;;4974035;28;20293;-54
2022/06/14 00:42:42;;;;;;;4.17;2.10;;;;;;;;;;4973412;28;20236;-54
2022/06/14 00:45:29;;;;;;;6.43;2.37;;;;;;;;;;4973905;28;20199;-54
2022/06/14 00:47:59;;;;;;;2.87;1.90;;;;;;;;;;4973531;28;20191;-53
2022/06/14 00:50:26;;;;;;;7.07;2.33;;;;;;;;;;4973710;28;20258;-54
2022/06/14 00:52:55;;;;;;;6.30;2.20;;;;;;;;;;4973748;28;20570;-54
2022/06/14 00:55:23;;;;;;;3.13;2.00;;;;;;;;;;4973474;28;20665;-54
2022/06/14 00:57:51;;;;;;;3.93;2.10;;;;;;;;;;4973827;28;20202;-54
2022/06/14 01:00:19;;;;;;;5.20;2.70;;;;;;;;;;4973333;28;20675;-54
2022/06/14 01:02:46;;;;;;;5.33;2.27;;;;;;;;;;4973285;28;20231;-54
2022/06/14 01:05:16;;;;;;;4.27;2.30;;;;;;;;;;4973547;28;20208;-54
2022/06/14 01:07:44;;;;;;;5.20;2.60;;;;;;;;;;4973496;28;20203;-54
2022/06/14 01:10:13;;;;;;;3.97;2.40;;;;;;;;;;4973293;28;20203;-54
2022/06/14 01:12:41;;;;;;;5.73;2.23;;;;;;;;;;4972881;28;20242;-54
2022/06/14 01:15:09;;;;;;;5.10;2.40;;;;;;;;;;4973271;28;20205;-54
2022/06/14 01:17:42;;;;;;;5.33;2.10;;;;;;;;;;4973199;28;20237;-54
2022/06/14 01:20:09;;;;;;;2.17;1.97;;;;;;;;;;4973403;28;20203;-54
2022/06/14 01:22:37;;;;;;;2.43;1.83;;;;;;;;;;4973190;28;20246;-55
2022/06/14 01:25:03;;;;;;;4.80;2.47;;;;;;;;;;4973065;28;20676;-54
2022/06/14 01:27:30;;;;;;;3.97;2.40;;;;;;;;;;4972916;28;20209;-54
2022/06/14 01:29:59;;;;;;;5.63;2.40;;;;;;;;;;4972789;28;20620;-54
2022/06/14 01:32:26;;;;;;;5.07;2.90;;;;;;;;;;4973014;28;20245;-54
2022/06/14 01:34:57;;;;;;;4.90;2.47;;;;;;;;;;4972882;28;20672;-54
2022/06/14 01:37:23;;;;;;;5.30;2.33;;;;;;;;;;4972773;28;20219;-54
2022/06/14 01:39:50;;;;;;;3.43;2.30;;;;;;;;;;4972967;28;20199;-54
2022/06/14 01:42:21;;;;;;;3.53;2.20;;;;;;;;;;4972845;28;20230;-54
2022/06/14 01:44:55;;;;;;;5.63;2.60;;;;;;;;;;4972412;28;20744;-54
2022/06/14 01:47:25;;;;;;;2.60;2.20;;;;;;;;;;4972758;28;20596;-54
2022/06/14 01:52:48;;;;;;;3.00;2.63;;;;;;;;;;4972647;28;20202;-54
2022/06/14 01:55:19;;;;;;;6.97;2.73;;;;;;;;;;4972553;28;20199;-54
2022/06/14 01:57:51;;;;;;;4.90;2.60;;;;;;;;;;4972478;28;20666;-54
2022/06/14 02:00:20;;;;;;;5.30;2.50;;;;;;;;;;4972517;28;20198;-54
2022/06/14 02:02:51;;;;;;;4.27;2.40;;;;;;;;;;4972784;28;20231;-54
2022/06/14 02:05:21;;;;;;;5.07;2.40;;;;;;;;;;4972638;28;20202;-54
2022/06/14 02:07:51;;;;;;;4.37;2.30;;;;;;;;;;4972565;28;20572;-54
2022/06/14 02:10:21;;;;;;;4.10;2.33;;;;;;;;;;4972250;28;20203;-54
2022/06/14 02:12:49;;;;;;;3.30;2.20;;;;;;;;;;4972447;28;20203;-54
2022/06/14 02:15:18;;;;;;;3.63;2.30;;;;;;;;;;4972291;28;20210;-54
2022/06/14 02:17:48;;;;;;;3.03;2.53;;;;;;;;;;4972408;28;20199;-54
2022/06/14 02:20:17;;;;;;;3.63;2.73;;;;;;;;;;4972771;28;20199;-55
2022/06/14 02:22:45;;;;;;;3.53;2.30;;;;;;;;;;4972292;28;20230;-54
2022/06/14 02:25:12;;;;;;;5.87;2.73;;;;;;;;;;4972854;28;20199;-54
2022/06/14 02:27:42;;;;;;;6.43;2.57;;;;;;;;;;4976278;28;20194;-54
2022/06/14 02:30:11;;;;;;;4.47;2.10;;;;;;;;;;4976131;28;20230;-54
2022/06/14 02:32:41;;;;;;;5.60;2.70;;;;;;;;;;4975982;28;20195;-54
2022/06/14 02:35:09;;;;;;;4.57;2.73;;;;;;;;;;4976176;28;20210;-54
2022/06/14 02:37:37;;;;;;;3.80;2.70;;;;;;;;;;4976100;28;20256;-55
2022/06/14 02:40:06;;;;;;;4.73;2.63;;;;;;;;;;4976454;28;20206;-54
2022/06/14 02:42:34;;;;;;;5.10;2.70;;;;;;;;;;4976130;28;20230;-54
2022/06/14 02:45:05;;;;;;;2.70;2.30;;;;;;;;;;4975956;28;20249;-54
2022/06/14 02:47:34;;;;;;;5.37;2.47;;;;;;;;;;4975955;28;20209;-53
2022/06/14 02:50:04;;;;;;;5.57;2.70;;;;;;;;;;4975971;28;20732;-54
2022/06/14 02:52:33;;;;;;;2.37;2.17;;;;;;;;;;4975521;28;20225;-54
2022/06/14 02:55:01;;;;;;;4.33;2.70;;;;;;;;;;4975946;28;20654;-54
2022/06/14 02:57:31;;;;;;;3.87;2.60;;;;;;;;;;4975773;28;20191;-54
2022/06/14 03:00:00;;;;;;;2.73;2.40;;;;;;;;;;4975844;28;20190;-54
2022/06/14 03:02:31;;;;;;;4.50;2.70;;;;;;;;;;4975611;28;20728;-53
2022/06/14 03:05:00;;;;;;;4.13;2.40;;;;;;;;;;4975791;28;20199;-54
2022/06/14 03:07:27;;;;;;;3.77;2.60;;;;;;;;;;4975562;28;20242;-54
2022/06/14 03:09:54;;;;;;;4.43;2.70;;;;;;;;;;4975593;28;20211;-54
2022/06/14 03:12:27;;;;;;;3.23;2.43;;;;;;;;;;4975458;28;20653;-54
2022/06/14 03:15:00;;;;;;;4.10;2.70;;;;;;;;;;4975301;28;20199;-54
2022/06/14 03:17:31;;;;;;;3.17;2.60;;;;;;;;;;4975470;28;20202;-54
2022/06/14 03:20:02;;;;;;;5.03;2.67;;;;;;;;;;4975239;28;20219;-54
2022/06/14 03:22:36;;;;;;;4.03;2.90;;;;;;;;;;4974802;28;20233;-54
2022/06/14 03:25:06;;;;;;;3.63;2.60;;;;;;;;;;4975146;28;20237;-54
2022/06/14 03:27:33;;;;;;;5.83;2.87;;;;;;;;;;4975277;28;20207;-54
2022/06/14 03:30:03;;;;;;;4.60;2.97;;;;;;;;;;4975160;28;20246;-54
2022/06/14 03:32:33;;;;;;;4.33;2.80;;;;;;;;;;4975178;28;20195;-54
2022/06/14 03:35:02;;;;;;;7.07;3.73;;;;;;;;;;4975188;28;20199;-54
2022/06/14 03:37:28;;;;;;;5.63;2.90;;;;;;;;;;4974489;28;20562;-54
2022/06/14 03:39:57;;;;;;;5.20;3.40;;;;;;;;;;4975241;28;20207;-54
2022/06/14 03:42:23;;;;;;;4.90;3.00;;;;;;;;;;4975033;28;20617;-54
2022/06/14 03:44:49;;;;;;;3.93;3.20;;;;;;;;;;4975029;28;20254;-53
2022/06/14 03:47:18;;;;;;;4.57;3.20;;;;;;;;;;4975063;28;20205;-53
2022/06/14 03:49:48;;;;;;;4.33;2.90;;;;;;;;;;4974834;28;20286;-54
2022/06/14 03:52:20;;;;;;;5.43;3.20;;;;;;;;;;4974709;28;20704;-53
2022/06/14 03:54:49;;;;;;;4.03;2.80;;;;;;;;;;4974580;28;20218;-53
2022/06/14 03:57:28;;;;;;;3.43;2.70;;;;;;;;;;4974593;28;20607;-54
2022/06/14 04:00:04;;;;;;;4.03;2.77;;;;;;;;;;4974648;28;20253;-53
2022/06/14 04:02:55;;;;;;;5.67;3.30;;;;;;;;;;4974544;28;20238;-53
2022/06/14 04:05:28;;;;;;;5.07;3.30;;;;;;;;;;4974951;28;20205;-53
2022/06/14 04:07:57;;;;;;;8.27;3.33;;;;;;;;;;4974568;28;20214;-54
2022/06/14 04:10:29;;;;;;;3.80;3.13;;;;;;;;;;4974333;28;20199;-54
2022/06/14 04:13:01;;;;;;;9.77;4.20;;;;;;;;;;4974413;28;20195;-54
2022/06/14 04:15:32;;;;;;;7.07;3.60;;;;;;;;;;4974216;28;20224;-54
2022/06/14 04:18:34;;;;;;;5.93;3.80;;;;;;;;;;4974316;28;20257;-54
2022/06/14 04:20:56;;;;;;;5.37;3.30;;;;;;;;;;4973913;28;20237;-54
2022/06/14 04:23:28;;;;;;;4.93;3.40;;;;;;;;;;4974109;28;20195;-55
2022/06/14 04:25:58;;;;;;;4.73;3.40;;;;;;;;;;4973942;28;20620;-54
2022/06/14 04:28:28;;;;;;;5.97;3.50;;;;;;;;;;4974228;28;20199;-55
2022/06/14 04:30:57;;;;;;;7.20;3.47;;;;;;;;;;4973964;28;20250;-54
2022/06/14 04:33:27;;;;;;;5.87;2.90;;;;;;;;;;4974241;28;20285;-55
2022/06/14 04:35:56;;;;;;;3.70;2.50;;;;;;;;;;4973449;28;20199;-55
2022/06/14 04:38:25;;;;;;;4.03;2.90;;;;;;;;;;4973550;28;20203;-55
2022/06/14 04:40:54;;;;;;;4.60;3.37;;;;;;;;;;4973699;28;20306;-54
2022/06/14 04:43:23;;;;;;;4.93;3.23;;;;;;;;;;4973695;28;20209;-55
2022/06/14 04:45:55;;;;;;;5.43;3.20;;;;;;;;;;4973536;28;20215;-55
2022/06/14 04:48:24;;;;;;;6.33;3.33;;;;;;;;;;4972812;28;20203;-54
2022/06/14 04:50:53;;;;;;;5.03;3.10;;;;;;;;;;4973557;28;20207;-54
2022/06/14 04:53:22;;;;;;;4.43;3.50;;;;;;;;;;4973640;28;20617;-55
2022/06/14 04:55:51;;;;;;;5.23;3.40;;;;;;;;;;4973496;28;20211;-54
2022/06/14 04:58:19;;;;;;;4.90;3.10;;;;;;;;;;4973669;28;20207;-54
2022/06/14 05:00:47;;;;;;;4.13;3.40;;;;;;;;;;4973199;28;20230;-54
2022/06/14 05:03:16;;;;;;;7.27;3.43;;;;;;;;;;4973789;28;20231;-53
2022/06/14 05:05:43;;;;;;;5.67;3.93;;;;;;;;;;4973508;28;20750;-53
2022/06/14 05:08:11;;;;;;;7.13;3.77;;;;;;;;;;4973322;28;20211;-53
2022/06/14 05:10:41;;;;;;;6.33;3.80;;;;;;;;;;4973271;28;20676;-53
2022/06/14 05:13:10;;;;;;;9.27;3.83;;;;;;;;;;4973240;28;20609;-53
2022/06/14 05:15:38;;;;;;;6.93;4.00;;;;;;;;;;4972400;28;20814;-53
2022/06/14 05:18:08;;;;;;;5.07;3.53;;;;;;;;;;4972316;28;20199;-53
2022/06/14 05:20:36;;;;;;;7.57;4.00;;;;;;;;;;4972767;28;20206;-53
2022/06/14 05:23:03;;;;;;;6.30;3.93;;;;;;;;;;4973243;28;20780;-53
2022/06/14 05:25:32;;;;;;;5.40;4.17;;;;;;;;;;4972996;28;20222;-53
2022/06/14 05:28:02;;;;;;;6.93;4.13;;;;;;;;;;4972656;28;20290;-53
2022/06/14 05:30:35;;;;;;;6.60;4.47;;;;;;;;;;4972524;28;20662;-53
2022/06/14 05:33:08;;;;;;;9.57;4.37;;;;;;;;;;4972706;28;20654;-53
2022/06/14 05:35:36;;;;;;;8.10;4.30;;;;;;;;;;4972846;28;20199;-53
2022/06/14 05:38:12;;;;;;;6.87;4.97;;;;;;;;;;4972853;28;20670;-53
2022/06/14 05:40:40;;;;;;;5.70;4.30;;;;;;;;;;4972823;28;20207;-53
2022/06/14 05:43:11;;;;;;;6.70;4.70;;;;;;;;;;4972821;28;20233;-53
2022/06/14 05:45:45;;;;;;;9.53;4.07;;;;;;;;;;4972584;28;20290;-54
2022/06/14 05:48:12;;;;;;;4.60;4.20;;;;;;;;;;4972896;28;20203;-54
2022/06/14 05:50:41;;;;;;;7.33;4.00;;;;;;;;;;4972599;28;20586;-53
2022/06/14 05:53:10;;;;;;;6.43;3.53;;;;;;;;;;4972600;28;20662;-54
2022/06/14 05:55:38;;;;;;;5.03;4.50;;;;;;;;;;4972676;28;20666;-54
2022/06/14 05:58:09;;;;;;;7.57;3.97;;;;;;;;;;4972490;28;20681;-54
2022/06/14 06:00:40;;;;;;;5.63;3.50;;;;;;;;;;4972336;28;20222;-55
2022/06/14 06:03:08;;;;;;;6.57;4.17;;;;;;;;;;4972441;28;20262;-55
2022/06/14 06:05:38;;;;;;;5.57;4.17;;;;;;;;;;4972784;28;20223;-54
2022/06/14 06:08:07;;;;;;;5.20;3.60;;;;;;;;;;4972554;28;20206;-54
2022/06/14 06:10:34;;;;;;;9.07;4.03;;;;;;;;;;4972455;28;20203;-55
2022/06/14 06:13:02;;;;;;;5.70;4.10;;;;;;;;;;4971962;28;20214;-55
2022/06/14 06:15:29;;;;;;;8.00;3.97;;;;;;;;;;4970928;28;20203;-54
2022/06/14 06:17:58;;;;;;;5.67;4.07;;;;;;;;;;4972020;28;20203;-55
2022/06/14 06:20:30;;;;;;;5.67;3.50;;;;;;;;;;4971830;28;20642;-55
2022/06/14 06:22:59;;;;;;;5.70;3.93;;;;;;;;;;4972050;28;20241;-54
2022/06/14 06:25:26;;;;;;;5.30;3.50;;;;;;;;;;4972388;28;20219;-53
2022/06/14 06:27:54;;;;;;;5.80;3.20;;;;;;;;;;4972496;28;20199;-53
2022/06/14 06:30:24;;;;;;;5.63;3.77;;;;;;;;;;4971907;28;20301;-52
2022/06/14 06:32:51;;;;;;;7.67;3.70;;;;;;;;;;4971888;28;20788;-53
2022/06/14 06:35:19;;;;;;;8.50;4.10;;;;;;;;;;4972613;28;20199;-52
2022/06/14 06:37:47;;;;;;;6.93;3.53;;;;;;;;;;4971979;28;20199;-53
2022/06/14 06:40:16;;;;;;;7.67;3.40;;;;;;;;;;4972229;28;20584;-54
2022/06/14 06:42:45;;;;;;;6.30;2.83;;;;;;;;;;4971813;28;20231;-54
2022/06/14 06:45:14;;;;;;;6.83;2.77;;;;;;;;;;4971935;28;20649;-54
2022/06/14 06:47:43;;;;;;;7.17;2.93;;;;;;;;;;4971895;28;20187;-53
2022/06/14 06:50:13;;;;;;;7.43;3.33;;;;;;;;;;4972054;28;20246;-53
2022/06/14 06:52:45;;;;;;;7.67;3.17;;;;;;;;;;4972054;28;20195;-54
2022/06/14 06:55:13;;;;;;;4.90;2.40;;;;;;;;;;4971876;28;20261;-54
2022/06/14 06:57:40;;;;;;;5.43;3.10;;;;;;;;;;4972235;28;20210;-54
2022/06/14 07:00:08;;;;;;;4.30;3.00;;;;;;;;;;4971893;28;20261;-54
2022/06/14 07:02:37;;;;;;;5.87;3.10;;;;;;;;;;4971934;28;20530;-54
2022/06/14 07:05:05;;;;;;;8.10;3.17;;;;;;;;;;4972263;28;20265;-54
2022/06/14 07:07:33;;;;;;;5.17;2.80;;;;;;;;;;4972174;28;20211;-54
2022/06/14 07:10:03;;;;;;;9.93;3.57;;;;;;;;;;4971749;28;20399;-54
2022/06/14 07:12:33;;;;;;;6.30;3.40;;;;;;;;;;4974262;28;20666;-54
2022/06/14 07:15:00;;;;;;;5.63;3.13;;;;;;;;;;4975217;28;20203;-54
2022/06/14 07:17:29;;;;;;;7.93;3.47;;;;;;;;;;4973428;28;20601;-54
2022/06/14 07:19:56;;;;;;;7.20;2.93;;;;;;;;;;4975111;28;20199;-54
2022/06/14 07:22:25;;;;;;;4.67;2.70;;;;;;;;;;4975203;28;20227;-54
2022/06/14 07:24:55;;;;;;;4.70;2.07;;;;;;;;;;4975124;28;20604;-54
2022/06/14 07:27:24;;;;;;;6.83;2.63;;;;;;;;;;4975292;28;20215;-54
2022/06/14 07:29:52;;;;;;;6.73;2.50;;;;;;;;;;4974806;28;20272;-53
2022/06/14 07:32:21;;;;;;;7.30;2.50;;;;;;;;;;4974533;28;20655;-54
2022/06/14 07:34:47;;;;;;;6.43;2.40;;;;;;;;;;4975117;28;20200;-54
2022/06/14 07:37:18;;;;;;;6.93;2.53;;;;;;;;;;4974832;28;20202;-54
2022/06/14 07:39:48;;;;;;;6.07;2.20;;;;;;;;;;4974978;28;20202;-54
2022/06/14 07:42:16;;;;;;;8.20;2.53;;;;;;;;;;4975055;28;20239;-54
2022/06/14 07:44:51;;;;;;;7.40;2.40;;;;;;;;;;4975063;28;20219;-54
2022/06/14 07:47:19;;;;;;;4.83;2.00;;;;;;;;;;4974960;28;20286;-54
2022/06/14 07:49:50;;;;;;;7.23;2.00;;;;;;;;;;4974530;28;20195;-54
2022/06/14 07:52:20;;;;;;;6.13;2.50;;;;;;;;;;4974740;28;20206;-54
2022/06/14 07:54:48;;;;;;;7.20;2.47;;;;;;;;;;4974538;28;20763;-54
2022/06/14 07:57:16;;;;;;;5.90;2.20;;;;;;;;;;4974626;28;20207;-54
2022/06/14 07:59:47;;;;;;;6.43;2.30;;;;;;;;;;4974678;28;20210;-55
2022/06/14 08:02:18;;;;;;;9.23;2.37;;;;;;;;;;4974806;28;20227;-54
2022/06/14 08:04:45;;;;;;;6.97;2.60;;;;;;;;;;4974681;28;20233;-55
2022/06/14 08:07:13;;;;;;;6.50;2.40;;;;;;;;;;4974522;28;20322;-55
2022/06/14 08:09:40;;;;;;;8.37;2.40;;;;;;;;;;4974661;28;20207;-54
2022/06/14 08:12:10;;;;;;;7.10;2.43;;;;;;;;;;4974376;28;20199;-54
2022/06/14 08:14:40;;;;;;;7.40;2.30;;;;;;;;;;4974319;28;20738;-55
2022/06/14 08:17:10;;;;;;;6.97;2.10;;;;;;;;;;4974203;28;20637;-53
2022/06/14 08:19:42;;;;;;;4.80;2.10;;;;;;;;;;4974527;28;20203;-53
2022/06/14 08:22:11;;;;;;;7.00;2.30;;;;;;;;;;4973869;28;20294;-53
2022/06/14 08:24:40;;;;;;;6.63;2.30;;;;;;;;;;4973170;28;20301;-54
2022/06/14 08:27:09;;;;;;;5.00;2.00;;;;;;;;;;4974063;28;20219;-53
2022/06/14 08:29:38;;;;;;;7.10;2.10;;;;;;;;;;4973805;28;20768;-54
2022/06/14 08:32:08;;;;;;;6.87;2.20;;;;;;;;;;4974114;28;20195;-54
2022/06/14 08:34:36;;;;;;;5.97;1.93;;;;;;;;;;4974248;28;20207;-54
2022/06/14 08:37:06;;;;;;;5.00;2.07;;;;;;;;;;4973992;28;20230;-54
2022/06/14 08:39:33;;;;;;;3.27;1.83;;;;;;;;;;4973922;28;20250;-54
2022/06/14 08:42:03;;;;;;;5.97;2.37;;;;;;;;;;4973768;28;20558;-55
2022/06/14 08:44:33;;;;;;;6.30;1.87;;;;;;;;;;4973869;28;20223;-53
2022/06/14 08:47:04;;;;;;;5.63;2.17;;;;;;;;;;4973881;28;20204;-53
2022/06/14 08:49:42;;;;;;;5.53;2.00;;;;;;;;;;4973946;28;20201;-57
2022/06/14 08:52:20;;;;;;;3.77;1.90;;;;;;;;;;4973885;28;20271;-54
2022/06/14 08:54:56;;;;;;;7.97;2.00;;;;;;;;;;4973647;28;20225;-54
2022/06/14 08:57:30;;;;;;;6.17;2.20;;;;;;;;;;4973688;28;20228;-54
2022/06/14 09:00:05;;;;;;;6.57;1.87;;;;;;;;;;4973318;28;20202;-54
2022/06/14 09:03:05;;;;;;;5.03;2.10;;;;;;;;;;4973516;28;20234;-55
2022/06/14 09:05:37;;;;;;;5.60;1.97;;;;;;;;;;4973352;28;20207;-54
2022/06/14 09:08:21;;;;;;;4.83;2.30;;;;;;;;;;4972981;28;20203;-53
2022/06/14 09:10:55;;;;;;;2.93;1.73;;;;;;;;;;4973345;28;20203;-54
2022/06/14 09:13:28;;;;;;;3.93;1.70;;;;;;;;;;4973216;28;20281;-54
2022/06/14 09:16:08;;;;;;;4.87;1.80;;;;;;;;;;4973239;28;20199;-54
2022/06/14 09:18:39;;;;;;;4.47;1.77;;;;;;;;;;4972983;28;20653;-53
2022/06/14 09:21:12;;;;;;;3.77;1.57;;;;;;;;;;4973038;28;20213;-53
2022/06/14 09:23:44;;;;;;;5.87;1.90;;;;;;;;;;4973146;28;20293;-53
2022/06/14 09:26:25;;;;;;;3.60;1.53;;;;;;;;;;4972966;28;20277;-53
2022/06/14 09:29:16;;;;;;;5.13;1.77;;;;;;;;;;4969523;28;20302;-53
2022/06/14 09:31:52;;;;;;;4.90;1.80;;;;;;;;;;4972869;28;20214;-53
2022/06/14 09:34:26;;;;;;;3.83;1.77;;;;;;;;;;4972559;28;20198;-54
2022/06/14 09:37:17;;;;;;;4.27;1.77;;;;;;;;;;4973216;28;20202;-54
2022/06/14 09:39:53;;;;;;;4.77;1.83;;;;;;;;;;4973029;28;20203;-53
2022/06/14 09:42:31;;;;;;;3.33;1.50;;;;;;;;;;4972869;28;20236;-53
2022/06/14 09:45:14;;;;;;;4.13;1.90;;;;;;;;;;4972768;28;20202;-53
2022/06/14 09:48:02;;;;;;;5.17;1.80;;;;;;;;;;4972779;28;20666;-54
2022/06/14 09:50:43;;;;;;;7.37;1.83;;;;;;;;;;4966851;28;20249;-53
2022/06/14 09:53:23;;;;;;;6.17;1.90;;;;;;;;;;4972493;28;20296;-53
2022/06/14 09:55:58;;;;;;;4.57;1.83;;;;;;;;;;4972794;28;20204;-53
2022/06/14 09:58:32;;;;;;;4.93;1.70;;;;;;;;;;4972902;28;20198;-53
2022/06/14 10:01:05;;;;;;;7.30;2.03;;;;;;;;;;4972668;28;20214;-53
2022/06/14 10:03:45;;;;;;;4.03;1.67;;;;;;;;;;4972565;28;20252;-53
2022/06/14 10:06:19;;;;;;;3.97;1.53;;;;;;;;;;4972288;28;20217;-53
2022/06/14 10:08:56;;;;;;;3.93;1.77;;;;;;;;;;4972713;28;20198;-54
2022/06/14 10:11:32;;;;;;;2.77;1.23;;;;;;;;;;4972259;28;20203;-53
2022/06/14 10:14:09;;;;;;;4.83;1.73;;;;;;;;;;4972561;28;20285;-53
2022/06/14 10:16:48;;;;;;;7.23;2.37;;;;;;;;;;4972678;28;20206;-53
2022/06/14 10:19:21;;;;;;;6.30;2.27;;;;;;;;;;4972262;28;20290;-54
2022/06/14 10:21:49;;;;;;;5.50;2.00;;;;;;;;;;4972304;28;20236;-54
2022/06/14 10:24:20;;;;;;;4.33;1.57;;;;;;;;;;4972363;28;20207;-54
2022/06/14 10:29:59;;;;;;;4.30;1.90;;;;;;;;;;4972146;28;20354;-54
2022/06/14 10:32:42;;;;;;;4.37;1.70;;;;;;;;;;4972346;28;20190;-54
2022/06/14 10:35:13;;;;;;;4.50;1.83;;;;;;;;;;4972147;28;20218;-54
2022/06/14 10:37:51;;;;;;;4.53;1.70;;;;;;;;;;4972450;28;20201;-54
2022/06/14 10:40:38;;;;;;;4.50;1.63;;;;;;;;;;4972239;28;20210;-54
2022/06/14 10:43:06;;;;;;;5.70;2.00;;;;;;;;;;4965472;28;20658;-54
2022/06/14 10:45:35;;;;;;;5.13;2.20;;;;;;;;;;4972242;28;20293;-54
2022/06/14 10:48:18;;;;;;;3.27;1.43;;;;;;;;;;4975684;28;20198;-54
2022/06/14 10:50:50;;;;;;;3.83;2.00;;;;;;;;;;4975963;28;20207;-54
2022/06/14 10:53:24;;;;;;;5.17;1.73;;;;;;;;;;4976249;28;20246;-53
2022/06/14 10:56:14;;;;;;;4.33;1.77;;;;;;;;;;4975874;28;20206;-53
2022/06/14 10:58:55;;;;;;;6.70;2.20;;;;;;;;;;4956309;28;20203;-53
2022/06/14 11:01:30;;;;;;;3.57;2.03;;;;;;;;;;4972784;28;20277;-54
2022/06/14 11:04:00;;;;;;;4.93;2.10;;;;;;;;;;4975619;28;20205;-54
2022/06/14 11:06:42;;;;;;;6.03;1.97;;;;;;;;;;4975701;28;20212;-53
2022/06/14 11:09:18;;;;;;;5.13;2.00;;;;;;;;;;4975429;28;20682;-54
2022/06/14 11:11:51;;;;;;;4.20;1.90;;;;;;;;;;4975533;28;20671;-54
2022/06/14 11:14:23;;;;;;;4.60;1.77;;;;;;;;;;4975439;28;20204;-54
2022/06/14 11:17:07;;;;;;;5.93;2.00;;;;;;;;;;4975169;28;20722;-54
2022/06/14 11:19:52;;;;;;;5.13;1.60;;;;;;;;;;4974903;28;20426;-54
2022/06/14 11:22:35;;;;;;;4.80;1.60;;;;;;;;;;4975186;28;20220;-54
2022/06/14 11:25:08;;;;;;;4.67;1.80;;;;;;;;;;4975166;28;20199;-54
2022/06/14 11:27:39;;;;;;;5.30;1.80;;;;;;;;;;4975054;28;20673;-53
2022/06/14 11:30:10;;;;;;;5.50;2.10;;;;;;;;;;4974960;28;20603;-53
2022/06/14 11:32:40;;;;;;;5.07;2.20;;;;;;;;;;4975125;28;20411;-53
2022/06/14 11:35:13;;;;;;;6.23;1.90;;;;;;;;;;4975213;28;20220;-53
2022/06/14 11:37:47;;;;;;;3.50;1.63;;;;;;;;;;4969058;28;20231;-55
2022/06/14 11:40:15;;;;;;;5.77;2.00;;;;;;;;;;4974741;28;20207;-54
2022/06/14 11:42:45;;;;;;;4.90;1.80;;;;;;;;;;4974945;28;20237;-56
2022/06/14 11:45:16;;;;;;;3.87;1.70;;;;;;;;;;4974617;28;20199;-55
2022/06/14 11:47:45;;;;;;;7.97;2.20;;;;;;;;;;4975051;28;20298;-55
2022/06/14 11:50:17;;;;;;;7.13;2.40;;;;;;;;;;4974634;28;20228;-54
2022/06/14 11:52:52;;;;;;;6.60;2.10;;;;;;;;;;4974440;28;20974;-55
2022/06/14 11:55:24;;;;;;;3.33;1.63;;;;;;;;;;4974620;28;20204;-55
2022/06/14 11:57:54;;;;;;;2.93;1.67;;;;;;;;;;4974635;28;20200;-55
2022/06/14 12:00:24;;;;;;;4.17;1.73;;;;;;;;;;4974616;28;20306;-54
2022/06/14 12:02:55;;;;;;;3.27;1.63;;;;;;;;;;4974869;28;20228;-55
2022/06/14 12:05:32;;;;;;;4.13;2.20;;;;;;;;;;4974812;28;20234;-55
2022/06/14 12:08:01;;;;;;;4.37;2.23;;;;;;;;;;4973077;28;20208;-54
2022/06/14 12:10:35;;;;;;;3.53;1.70;;;;;;;;;;4974714;28;20232;-54
2022/06/14 12:13:08;;;;;;;3.77;1.77;;;;;;;;;;4974496;28;20654;-55
2022/06/14 12:15:37;;;;;;;5.60;2.10;;;;;;;;;;4974664;28;20208;-55
2022/06/14 12:18:04;;;;;;;7.00;2.03;;;;;;;;;;4974613;28;20243;-54
2022/06/14 12:20:35;;;;;;;7.13;2.20;;;;;;;;;;4974542;28;20224;-55
2022/06/14 12:23:02;;;;;;;3.63;2.00;;;;;;;;;;4974283;28;20282;-54
2022/06/14 12:28:18;;;;;;;6.43;2.40;;;;;;;;;;4973938;28;20220;-53
2022/06/14 12:30:45;;;;;;;4.23;1.90;;;;;;;;;;4974016;28;20271;-53
2022/06/14 12:33:13;;;;;;;4.60;1.90;;;;;;;;;;4974156;28;20219;-53
2022/06/14 12:35:44;;;;;;;5.37;1.97;;;;;;;;;;4974399;28;20199;-54
2022/06/14 12:38:14;;;;;;;3.33;1.90;;;;;;;;;;4974188;28;20222;-56
2022/06/14 12:40:42;;;;;;;5.53;2.17;;;;;;;;;;4973983;28;20559;-54
2022/06/14 12:43:11;;;;;;;7.80;2.30;;;;;;;;;;4973897;28;20269;-55
2022/06/14 12:45:38;;;;;;;6.20;2.03;;;;;;;;;;4974097;28;20211;-55
2022/06/14 12:48:09;;;;;;;9.13;2.17;;;;;;;;;;4973921;28;20750;-54
2022/06/14 12:50:37;;;;;;;3.83;1.90;;;;;;;;;;4974038;28;20210;-54
2022/06/14 12:53:12;;;;;;;4.13;1.93;;;;;;;;;;4973828;28;20202;-55
2022/06/14 12:55:41;;;;;;;4.87;1.90;;;;;;;;;;4973745;28;20768;-56
2022/06/14 12:58:24;;;;;;;5.73;2.00;;;;;;;;;;4973979;28;20285;-55
2022/06/14 13:00:52;;;;;;;7.77;2.17;;;;;;;;;;4973138;28;20218;-56
2022/06/14 13:03:24;;;;;;;6.60;2.00;;;;;;;;;;4970026;28;20261;-55
2022/06/14 13:05:52;;;;;;;7.47;2.40;;;;;;;;;;4973378;28;20203;-55
2022/06/14 13:08:26;;;;;;;6.27;2.10;;;;;;;;;;4973066;28;20213;-54
2022/06/14 13:10:56;;;;;;;4.70;1.90;;;;;;;;;;4973046;28;20199;-56
2022/06/14 13:13:40;;;;;;;5.57;2.40;;;;;;;;;;4973107;28;20268;-55
2022/06/14 13:16:09;;;;;;;5.50;3.07;;;;;;;;;;4973077;28;20201;-54
2022/06/14 13:18:41;;;;;;;5.40;2.03;;;;;;;;;;4973111;28;20296;-54
2022/06/14 13:21:13;;;;;;;4.70;2.30;;;;;;;;;;4972916;28;20300;-54
2022/06/14 13:23:44;;;;;;;5.53;2.33;;;;;;;;;;4972931;28;20228;-56
2022/06/14 13:26:22;;;;;;;6.57;2.23;;;;;;;;;;4972864;28;20704;-54
2022/06/14 13:29:01;;;;;;;4.27;2.00;;;;;;;;;;4972660;28;20595;-54
2022/06/14 13:31:33;;;;;;;8.60;2.17;;;;;;;;;;4972974;28;20233;-55
2022/06/14 13:34:04;;;;;;;6.77;2.27;;;;;;;;;;4972931;28;20193;-54
2022/06/14 13:36:36;;;;;;;10.13;2.50;;;;;;;;;;4972421;28;20206;-54
2022/06/14 13:39:11;;;;;;;5.33;2.20;;;;;;;;;;4972415;28;20212;-55
2022/06/14 13:41:39;;;;;;;6.20;2.20;;;;;;;;;;4972954;28;20213;-55
2022/06/14 13:44:10;;;;;;;3.77;2.03;;;;;;;;;;4972854;28;20293;-55
2022/06/14 13:46:40;;;;;;;7.77;1.73;;;;;;;;;;4973048;28;20205;-55
2022/06/14 13:49:15;;;;;;;4.83;2.23;;;;;;;;;;4972914;28;20209;-54
2022/06/14 13:51:43;;;;;;;4.10;1.83;;;;;;;;;;4971215;28;20202;-56
2022/06/14 13:54:15;;;;;;;3.20;1.70;;;;;;;;;;4972865;28;20209;-55
2022/06/14 13:56:45;;;;;;;6.77;1.90;;;;;;;;;;4972863;28;20751;-55
2022/06/14 13:59:14;;;;;;;5.97;1.90;;;;;;;;;;4972678;28;20226;-55
2022/06/14 14:01:43;;;;;;;5.60;2.07;;;;;;;;;;4972498;28;20199;-55
2022/06/14 14:04:16;;;;;;;5.13;2.10;;;;;;;;;;4970920;28;20206;-55
2022/06/14 14:06:44;;;;;;;5.43;2.37;;;;;;;;;;4972820;28;20245;-56
2022/06/14 14:09:16;;;;;;;4.60;2.03;;;;;;;;;;4972795;28;20284;-55
2022/06/14 14:11:51;;;;;;;4.13;1.90;;;;;;;;;;4972467;28;20262;-55
2022/06/14 14:14:23;;;;;;;4.93;2.30;;;;;;;;;;4972451;28;20541;-55
2022/06/14 14:16:54;;;;;;;4.80;2.10;;;;;;;;;;4972683;28;20194;-56
2022/06/14 14:19:25;;;;;;;4.20;1.90;;;;;;;;;;4972344;28;20210;-56
2022/06/14 14:21:56;;;;;;;4.13;1.80;;;;;;;;;;4976027;28;20199;-55
2022/06/14 14:24:30;;;;;;;7.07;2.20;;;;;;;;;;4976638;28;20331;-55
2022/06/14 14:27:00;;;;;;;7.23;2.10;;;;;;;;;;4976400;28;20705;-56
2022/06/14 14:29:29;;;;;;;4.63;1.87;;;;;;;;;;4976268;28;20227;-56
2022/06/14 14:31:57;;;;;;;5.07;2.07;;;;;;;;;;4976526;28;20257;-55
2022/06/14 14:34:26;;;;;;;4.70;1.90;;;;;;;;;;4976460;28;20203;-54
2022/06/14 14:36:55;;;;;;;6.57;2.03;;;;;;;;;;4976404;28;20297;-56
2022/06/14 14:39:24;;;;;;;5.40;2.10;;;;;;;;;;4976075;28;20269;-55
2022/06/14 14:41:54;;;;;;;5.13;2.07;;;;;;;;;;4976037;28;20681;-55
2022/06/14 14:44:22;;;;;;;6.47;2.17;;;;;;;;;;4976263;28;20213;-56
2022/06/14 14:46:53;;;;;;;5.80;1.77;;;;;;;;;;4976241;28;20241;-56
2022/06/14 14:49:22;;;;;;;4.63;2.07;;;;;;;;;;4976134;28;20269;-56
2022/06/14 14:51:51;;;;;;;3.87;1.77;;;;;;;;;;4976203;28;20225;-56
2022/06/14 14:54:21;;;;;;;4.77;2.00;;;;;;;;;;4975989;28;20298;-56
2022/06/14 14:56:50;;;;;;;2.83;2.00;;;;;;;;;;4976056;28;20274;-56
2022/06/14 14:59:20;;;;;;;7.03;2.30;;;;;;;;;;4975901;28;20209;-56
2022/06/14 15:07:28;;;;;;;5.47;2.00;;;;;;;;;;4973808;28;20288;-55
2022/06/14 15:09:57;;;;;;;7.53;2.00;;;;;;;;;;4975621;28;20203;-67
2022/06/14 15:12:26;;;;;;;4.23;1.80;;;;;;;;;;4975550;28;20220;-54
2022/06/14 15:15:04;;;;;;;6.50;2.23;;;;;;;;;;4975095;28;20197;-55
2022/06/14 15:20:19;;;;;;;5.30;2.50;;;;;;;;;;4975560;28;20200;-54
2022/06/14 15:22:47;;;;;;;5.80;2.03;;;;;;;;;;4975293;28;20229;-54